Stouffville, Canada
Current Conditions -  °F | °C
As of 5:00 PM on Thursday 23 Oct 2014 (Local Time) from CYKZ Reporting Station
Few Clouds Few Clouds  
Wind Chill: 59°   Ceiling: Unl
Heat Index: 59°   Visibility: 15mi
Dew Point: 43°   Wind: 9mph
Humidity: 55%   Direction: 340°NNW
Pressure: 30.06"   Gusts: NA
Location:  43.97°N, 79.25°W
Report Text: CYKZ 232100Z 34008KT 15SM FEW035 15/06 A3006 RMK SC1 SC TR SLP184
Loading
Personal Weather Stations






























Interactive Weather Map
Tropical Storm Tracking
New forecast layout! Learn more

10-Day Weather Forecast

Advertisements
Track Severe Weather on mobile